sensor_id;sensor_type;location;lat;lon;timestamp;noise_LAeq;noise_LA_min;noise_LA_max;noise_LA01;noise_LA95
80580;Laerm;69939;52.402;6.608;2024-03-08T00:00:23;40.13;33.95;57.12;;
80580;Laerm;69939;52.402;6.608;2024-03-08T00:02:53;55.55;36.43;69.14;;
80580;Laerm;69939;52.402;6.608;2024-03-08T00:05:23;57.46;35.70;72.73;;
80580;Laerm;69939;52.402;6.608;2024-03-08T00:07:53;40.53;33.92;59.26;;
80580;Laerm;69939;52.402;6.608;2024-03-08T00:10:28;40.72;33.39;57.20;;
80580;Laerm;69939;52.402;6.608;2024-03-08T00:12:58;56.69;34.12;73.95;;
80580;Laerm;69939;52.402;6.608;2024-03-08T00:15:35;42.61;34.16;64.31;;
80580;Laerm;69939;52.402;6.608;2024-03-08T00:18:04;47.99;34.49;67.75;;
80580;Laerm;69939;52.402;6.608;2024-03-08T00:20:34;40.36;34.45;58.79;;
80580;Laerm;69939;52.402;6.608;2024-03-08T00:23:03;51.04;34.90;69.08;;
80580;Laerm;69939;52.402;6.608;2024-03-08T00:25:33;58.65;36.63;75.68;;
80580;Laerm;69939;52.402;6.608;2024-03-08T00:28:04;60.08;38.01;77.76;;
80580;Laerm;69939;52.402;6.608;2024-03-08T00:30:39;56.00;34.41;75.06;;
80580;Laerm;69939;52.402;6.608;2024-03-08T00:33:09;54.65;34.82;72.12;;
80580;Laerm;69939;52.402;6.608;2024-03-08T00:35:38;39.23;33.89;59.90;;
80580;Laerm;69939;52.402;6.608;2024-03-08T00:38:07;55.26;35.02;71.63;;
80580;Laerm;69939;52.402;6.608;2024-03-08T00:40:39;61.70;34.24;78.22;;
80580;Laerm;69939;52.402;6.608;2024-03-08T00:43:10;49.07;33.88;70.85;;
80580;Laerm;69939;52.402;6.608;2024-03-08T00:45:48;45.86;34.18;64.10;;
80580;Laerm;69939;52.402;6.608;2024-03-08T00:48:18;48.90;34.19;65.86;;
80580;Laerm;69939;52.402;6.608;2024-03-08T00:50:48;41.89;34.81;60.21;;
80580;Laerm;69939;52.402;6.608;2024-03-08T00:53:17;37.85;33.58;56.61;;
80580;Laerm;69939;52.402;6.608;2024-03-08T00:55:46;38.98;34.29;56.87;;
80580;Laerm;69939;52.402;6.608;2024-03-08T00:58:16;40.63;33.88;58.80;;
80580;Laerm;69939;52.402;6.608;2024-03-08T01:00:50;48.67;34.12;67.91;;
80580;Laerm;69939;52.402;6.608;2024-03-08T01:03:20;41.69;33.85;61.20;;
80580;Laerm;69939;52.402;6.608;2024-03-08T01:05:49;50.53;34.25;67.31;;
80580;Laerm;69939;52.402;6.608;2024-03-08T01:08:19;57.47;34.66;80.46;;
80580;Laerm;69939;52.402;6.608;2024-03-08T01:10:49;46.74;34.49;71.96;;
80580;Laerm;69939;52.402;6.608;2024-03-08T01:13:22;55.12;34.83;81.22;;
80580;Laerm;69939;52.402;6.608;2024-03-08T01:15:55;46.60;33.84;68.99;;
80580;Laerm;69939;52.402;6.608;2024-03-08T01:18:24;50.02;34.22;70.68;;
80580;Laerm;69939;52.402;6.608;2024-03-08T01:20:54;49.85;35.78;69.79;;
80580;Laerm;69939;52.402;6.608;2024-03-08T01:23:23;45.86;35.05;61.31;;
80580;Laerm;69939;52.402;6.608;2024-03-08T01:25:53;43.85;33.72;65.05;;
80580;Laerm;69939;52.402;6.608;2024-03-08T01:28:23;42.82;34.14;66.70;;
80580;Laerm;69939;52.402;6.608;2024-03-08T01:30:57;52.21;34.36;77.10;;
80580;Laerm;69939;52.402;6.608;2024-03-08T01:33:27;59.88;35.42;75.65;;
80580;Laerm;69939;52.402;6.608;2024-03-08T01:35:58;63.80;35.48;83.02;;
80580;Laerm;69939;52.402;6.608;2024-03-08T01:38:31;51.36;34.60;66.91;;
80580;Laerm;69939;52.402;6.608;2024-03-08T01:41:02;42.20;33.32;67.85;;
80580;Laerm;69939;52.402;6.608;2024-03-08T01:43:31;41.61;34.15;64.71;;
80580;Laerm;69939;52.402;6.608;2024-03-08T01:46:05;52.09;34.58;70.50;;
80580;Laerm;69939;52.402;6.608;2024-03-08T01:48:35;57.14;34.71;75.66;;
80580;Laerm;69939;52.402;6.608;2024-03-08T01:51:07;52.96;34.18;70.54;;
80580;Laerm;69939;52.402;6.608;2024-03-08T01:53:38;50.39;34.52;68.09;;
80580;Laerm;69939;52.402;6.608;2024-03-08T01:56:08;39.82;33.98;56.27;;
80580;Laerm;69939;52.402;6.608;2024-03-08T01:58:40;58.83;34.43;77.31;;
80580;Laerm;69939;52.402;6.608;2024-03-08T02:01:14;40.69;34.64;56.54;;
80580;Laerm;69939;52.402;6.608;2024-03-08T02:03:45;56.37;35.26;72.19;;
80580;Laerm;69939;52.402;6.608;2024-03-08T02:06:14;46.22;34.21;64.44;;
80580;Laerm;69939;52.402;6.608;2024-03-08T02:08:44;38.82;33.84;57.27;;
80580;Laerm;69939;52.402;6.608;2024-03-08T02:11:17;46.10;34.44;66.54;;
80580;Laerm;69939;52.402;6.608;2024-03-08T02:13:46;49.90;34.75;71.00;;
80580;Laerm;69939;52.402;6.608;2024-03-08T02:16:23;39.94;34.47;58.14;;
80580;Laerm;69939;52.402;6.608;2024-03-08T02:18:53;59.73;34.26;77.45;;
80580;Laerm;69939;52.402;6.608;2024-03-08T02:21:26;50.64;34.23;67.24;;
80580;Laerm;69939;52.402;6.608;2024-03-08T02:23:55;57.45;34.61;75.45;;
80580;Laerm;69939;52.402;6.608;2024-03-08T02:26:25;45.06;33.89;66.88;;
80580;Laerm;69939;52.402;6.608;2024-03-08T02:28:54;39.32;34.18;55.41;;
80580;Laerm;69939;52.402;6.608;2024-03-08T02:31:23;55.92;34.69;77.99;;
80580;Laerm;69939;52.402;6.608;2024-03-08T02:33:53;59.89;35.40;83.71;;
80580;Laerm;69939;52.402;6.608;2024-03-08T02:36:25;58.31;35.75;75.77;;
80580;Laerm;69939;52.402;6.608;2024-03-08T02:38:54;41.50;34.42;60.49;;
80580;Laerm;69939;52.402;6.608;2024-03-08T02:41:23;54.06;35.98;71.17;;
80580;Laerm;69939;52.402;6.608;2024-03-08T02:43:53;58.28;34.94;75.34;;
80580;Laerm;69939;52.402;6.608;2024-03-08T02:46:22;54.42;34.95;73.90;;
80580;Laerm;69939;52.402;6.608;2024-03-08T02:48:52;58.07;35.80;78.31;;
80580;Laerm;69939;52.402;6.608;2024-03-08T02:51:21;49.44;34.77;67.59;;
80580;Laerm;69939;52.402;6.608;2024-03-08T02:53:55;46.67;34.49;71.49;;
80580;Laerm;69939;52.402;6.608;2024-03-08T02:56:24;56.76;34.55;71.78;;
80580;Laerm;69939;52.402;6.608;2024-03-08T02:58:54;56.57;35.59;74.87;;
80580;Laerm;69939;52.402;6.608;2024-03-08T03:01:24;51.78;35.03;67.55;;
80580;Laerm;69939;52.402;6.608;2024-03-08T03:03:53;41.88;34.52;59.04;;
80580;Laerm;69939;52.402;6.608;2024-03-08T03:06:23;60.21;35.61;78.67;;
80580;Laerm;69939;52.402;6.608;2024-03-08T03:08:56;42.30;35.11;60.38;;
80580;Laerm;69939;52.402;6.608;2024-03-08T03:11:26;59.68;38.53;74.87;;
80580;Laerm;69939;52.402;6.608;2024-03-08T03:13:55;60.07;36.17;75.36;;
80580;Laerm;69939;52.402;6.608;2024-03-08T03:16:31;58.43;36.10;72.25;;
80580;Laerm;69939;52.402;6.608;2024-03-08T03:19:00;58.49;36.47;75.82;;
80580;Laerm;69939;52.402;6.608;2024-03-08T03:21:31;53.52;35.89;67.58;;
80580;Laerm;69939;52.402;6.608;2024-03-08T03:24:02;58.96;36.04;74.43;;
80580;Laerm;69939;52.402;6.608;2024-03-08T03:26:36;54.29;35.12;71.61;;
80580;Laerm;69939;52.402;6.608;2024-03-08T03:29:06;58.79;35.78;73.55;;
80580;Laerm;69939;52.402;6.608;2024-03-08T03:31:39;54.05;34.98;74.41;;
80580;Laerm;69939;52.402;6.608;2024-03-08T03:34:12;48.30;35.78;67.34;;
80580;Laerm;69939;52.402;6.608;2024-03-08T03:36:42;56.24;36.09;73.44;;
80580;Laerm;69939;52.402;6.608;2024-03-08T03:39:13;59.46;37.23;74.01;;
80580;Laerm;69939;52.402;6.608;2024-03-08T03:41:42;57.98;37.14;73.69;;
80580;Laerm;69939;52.402;6.608;2024-03-08T03:44:13;58.16;34.88;75.21;;
80580;Laerm;69939;52.402;6.608;2024-03-08T03:46:45;58.10;35.59;74.17;;
80580;Laerm;69939;52.402;6.608;2024-03-08T03:49:16;61.11;37.07;79.99;;
80580;Laerm;69939;52.402;6.608;2024-03-08T03:51:46;61.44;38.32;75.09;;
80580;Laerm;69939;52.402;6.608;2024-03-08T03:54:16;57.25;36.59;71.82;;
80580;Laerm;69939;52.402;6.608;2024-03-08T03:56:53;46.39;36.04;67.63;;
80580;Laerm;69939;52.402;6.608;2024-03-08T03:59:23;64.26;36.16;83.53;;
80580;Laerm;69939;52.402;6.608;2024-03-08T04:01:55;61.28;37.74;79.94;;
80580;Laerm;69939;52.402;6.608;2024-03-08T04:04:25;60.96;36.77;75.04;;
80580;Laerm;69939;52.402;6.608;2024-03-08T04:06:55;62.65;36.86;80.89;;
80580;Laerm;69939;52.402;6.608;2024-03-08T04:09:24;59.67;39.20;75.15;;
80580;Laerm;69939;52.402;6.608;2024-03-08T04:11:56;62.39;38.07;76.72;;
80580;Laerm;69939;52.402;6.608;2024-03-08T04:14:27;62.38;41.20;75.42;;
80580;Laerm;69939;52.402;6.608;2024-03-08T04:16:57;60.31;38.50;76.05;;
80580;Laerm;69939;52.402;6.608;2024-03-08T04:19:28;63.61;39.74;75.90;;
80580;Laerm;69939;52.402;6.608;2024-03-08T04:22:07;44.90;38.08;60.91;;
80580;Laerm;69939;52.402;6.608;2024-03-08T04:24:37;53.82;38.31;70.41;;
80580;Laerm;69939;52.402;6.608;2024-03-08T04:27:07;60.40;41.07;76.11;;
80580;Laerm;69939;52.402;6.608;2024-03-08T04:29:36;59.72;40.27;72.64;;
80580;Laerm;69939;52.402;6.608;2024-03-08T04:32:07;59.44;38.79;75.20;;
80580;Laerm;69939;52.402;6.608;2024-03-08T04:34:39;62.74;39.36;75.83;;
80580;Laerm;69939;52.402;6.608;2024-03-08T04:37:11;62.70;45.97;74.59;;
80580;Laerm;69939;52.402;6.608;2024-03-08T04:39:42;63.84;41.03;74.08;;
80580;Laerm;69939;52.402;6.608;2024-03-08T04:42:13;61.72;41.45;75.39;;
80580;Laerm;69939;52.402;6.608;2024-03-08T04:44:44;64.20;42.86;76.10;;
80580;Laerm;69939;52.402;6.608;2024-03-08T04:47:14;63.73;42.36;76.43;;
80580;Laerm;69939;52.402;6.608;2024-03-08T04:49:43;64.10;45.56;74.22;;
80580;Laerm;69939;52.402;6.608;2024-03-08T04:52:16;64.68;43.33;78.46;;
80580;Laerm;69939;52.402;6.608;2024-03-08T04:54:45;64.97;46.60;74.97;;
80580;Laerm;69939;52.402;6.608;2024-03-08T04:57:14;61.76;41.41;73.81;;
80580;Laerm;69939;52.402;6.608;2024-03-08T04:59:44;63.76;41.36;77.72;;
80580;Laerm;69939;52.402;6.608;2024-03-08T05:02:13;63.28;43.31;76.29;;
80580;Laerm;69939;52.402;6.608;2024-03-08T05:04:43;66.36;48.90;77.92;;
80580;Laerm;69939;52.402;6.608;2024-03-08T05:07:16;67.57;48.97;76.06;;
80580;Laerm;69939;52.402;6.608;2024-03-08T05:09:45;67.68;49.85;76.38;;
80580;Laerm;69939;52.402;6.608;2024-03-08T05:12:17;67.50;46.62;80.31;;
80580;Laerm;69939;52.402;6.608;2024-03-08T05:14:52;63.52;45.95;75.66;;
80580;Laerm;69939;52.402;6.608;2024-03-08T05:17:22;67.02;47.65;80.18;;
80580;Laerm;69939;52.402;6.608;2024-03-08T05:19:52;67.46;48.63;80.72;;
80580;Laerm;69939;52.402;6.608;2024-03-08T05:22:22;68.89;49.84;82.00;;
80580;Laerm;69939;52.402;6.608;2024-03-08T05:24:51;65.57;48.66;74.00;;
80580;Laerm;69939;52.402;6.608;2024-03-08T05:27:22;63.95;43.45;77.20;;
80580;Laerm;69939;52.402;6.608;2024-03-08T05:29:55;67.15;48.40;78.68;;
80580;Laerm;69939;52.402;6.608;2024-03-08T05:32:24;68.27;54.43;78.08;;
80580;Laerm;69939;52.402;6.608;2024-03-08T05:34:56;67.39;50.58;77.00;;
80580;Laerm;69939;52.402;6.608;2024-03-08T05:37:26;66.90;48.70;75.29;;
80580;Laerm;69939;52.402;6.608;2024-03-08T05:39:57;68.44;50.98;76.25;;
80580;Laerm;69939;52.402;6.608;2024-03-08T05:42:27;68.49;51.94;75.02;;
80580;Laerm;69939;52.402;6.608;2024-03-08T05:44:59;67.41;50.95;75.22;;
80580;Laerm;69939;52.402;6.608;2024-03-08T05:47:42;66.91;49.12;77.08;;
80580;Laerm;69939;52.402;6.608;2024-03-08T05:50:12;67.39;48.10;75.31;;
80580;Laerm;69939;52.402;6.608;2024-03-08T05:52:41;66.62;49.82;74.64;;
80580;Laerm;69939;52.402;6.608;2024-03-08T05:55:14;67.05;50.51;75.02;;
80580;Laerm;69939;52.402;6.608;2024-03-08T05:57:45;67.31;47.73;76.47;;
80580;Laerm;69939;52.402;6.608;2024-03-08T06:00:15;68.38;50.27;76.05;;
80580;Laerm;69939;52.402;6.608;2024-03-08T06:02:49;65.89;48.76;77.60;;
80580;Laerm;69939;52.402;6.608;2024-03-08T06:05:25;68.05;50.93;76.52;;
80580;Laerm;69939;52.402;6.608;2024-03-08T06:07:55;68.15;49.48;77.53;;
80580;Laerm;69939;52.402;6.608;2024-03-08T06:10:27;68.19;53.14;76.47;;
80580;Laerm;69939;52.402;6.608;2024-03-08T06:12:58;69.12;53.27;81.96;;
80580;Laerm;69939;52.402;6.608;2024-03-08T06:15:29;68.15;52.87;75.72;;
80580;Laerm;69939;52.402;6.608;2024-03-08T06:18:02;68.52;51.28;77.84;;
80580;Laerm;69939;52.402;6.608;2024-03-08T06:20:36;68.97;54.13;78.33;;
80580;Laerm;69939;52.402;6.608;2024-03-08T06:23:09;67.10;48.13;76.78;;
80580;Laerm;69939;52.402;6.608;2024-03-08T06:25:50;66.77;49.17;75.95;;
80580;Laerm;69939;52.402;6.608;2024-03-08T06:28:22;67.65;50.15;76.07;;
80580;Laerm;69939;52.402;6.608;2024-03-08T06:31:19;69.19;48.44;79.96;;
80580;Laerm;69939;52.402;6.608;2024-03-08T06:33:49;67.70;50.67;75.55;;
80580;Laerm;69939;52.402;6.608;2024-03-08T06:36:31;67.57;50.64;75.52;;
80580;Laerm;69939;52.402;6.608;2024-03-08T06:39:01;70.13;55.22;78.64;;
80580;Laerm;69939;52.402;6.608;2024-03-08T06:41:35;69.36;50.98;78.82;;
80580;Laerm;69939;52.402;6.608;2024-03-08T06:44:07;68.90;52.27;83.22;;
80580;Laerm;69939;52.402;6.608;2024-03-08T06:46:40;69.55;53.22;76.42;;
80580;Laerm;69939;52.402;6.608;2024-03-08T06:49:10;68.16;47.89;76.10;;
80580;Laerm;69939;52.402;6.608;2024-03-08T06:51:44;68.13;50.61;74.67;;
80580;Laerm;69939;52.402;6.608;2024-03-08T06:54:13;68.25;52.24;78.80;;
80580;Laerm;69939;52.402;6.608;2024-03-08T06:56:43;66.08;48.43;74.08;;
80580;Laerm;69939;52.402;6.608;2024-03-08T06:59:17;67.43;48.67;76.99;;
80580;Laerm;69939;52.402;6.608;2024-03-08T07:01:53;66.39;49.99;74.68;;
80580;Laerm;69939;52.402;6.608;2024-03-08T07:04:24;68.87;49.61;89.56;;
80580;Laerm;69939;52.402;6.608;2024-03-08T07:06:55;68.26;50.91;76.25;;
80580;Laerm;69939;52.402;6.608;2024-03-08T07:09:25;68.59;47.07;75.99;;
80580;Laerm;69939;52.402;6.608;2024-03-08T07:11:56;67.91;47.13;77.21;;
80580;Laerm;69939;52.402;6.608;2024-03-08T07:14:28;68.92;49.16;78.87;;
80580;Laerm;69939;52.402;6.608;2024-03-08T07:17:03;69.85;49.31;81.68;;
80580;Laerm;69939;52.402;6.608;2024-03-08T07:19:32;66.81;49.57;77.88;;
80580;Laerm;69939;52.402;6.608;2024-03-08T07:22:05;67.27;47.63;78.32;;
80580;Laerm;69939;52.402;6.608;2024-03-08T07:24:36;67.22;47.93;78.79;;
80580;Laerm;69939;52.402;6.608;2024-03-08T07:27:22;67.50;46.31;82.24;;
80580;Laerm;69939;52.402;6.608;2024-03-08T07:29:51;68.03;50.65;77.36;;
80580;Laerm;69939;52.402;6.608;2024-03-08T07:32:24;69.19;50.53;80.20;;
80580;Laerm;69939;52.402;6.608;2024-03-08T07:34:53;68.76;51.04;75.80;;
80580;Laerm;69939;52.402;6.608;2024-03-08T07:37:22;67.43;47.66;76.05;;
80580;Laerm;69939;52.402;6.608;2024-03-08T07:39:52;67.36;50.75;76.80;;
80580;Laerm;69939;52.402;6.608;2024-03-08T07:42:21;66.99;49.00;76.64;;
80580;Laerm;69939;52.402;6.608;2024-03-08T07:44:56;67.93;45.41;76.76;;
80580;Laerm;69939;52.402;6.608;2024-03-08T07:47:26;67.67;51.58;74.69;;
80580;Laerm;69939;52.402;6.608;2024-03-08T07:49:59;68.67;48.89;77.49;;
80580;Laerm;69939;52.402;6.608;2024-03-08T07:52:28;67.29;49.69;77.51;;
80580;Laerm;69939;52.402;6.608;2024-03-08T07:54:57;66.30;45.57;78.74;;
80580;Laerm;69939;52.402;6.608;2024-03-08T07:57:27;66.36;50.40;76.63;;
80580;Laerm;69939;52.402;6.608;2024-03-08T07:59:59;66.63;51.88;74.93;;
80580;Laerm;69939;52.402;6.608;2024-03-08T08:02:33;67.26;48.36;77.59;;
80580;Laerm;69939;52.402;6.608;2024-03-08T08:05:04;65.06;47.79;73.48;;
80580;Laerm;69939;52.402;6.608;2024-03-08T08:07:36;67.33;47.54;82.65;;
80580;Laerm;69939;52.402;6.608;2024-03-08T08:10:08;66.40;47.72;79.46;;
80580;Laerm;69939;52.402;6.608;2024-03-08T08:12:42;69.60;53.95;82.46;;
80580;Laerm;69939;52.402;6.608;2024-03-08T08:15:17;66.65;46.82;79.84;;
80580;Laerm;69939;52.402;6.608;2024-03-08T08:17:47;65.86;46.94;81.48;;
80580;Laerm;69939;52.402;6.608;2024-03-08T08:20:18;67.51;51.09;77.71;;
80580;Laerm;69939;52.402;6.608;2024-03-08T08:22:47;68.98;47.82;84.98;;
80580;Laerm;69939;52.402;6.608;2024-03-08T08:25:17;67.92;47.77;81.20;;
80580;Laerm;69939;52.402;6.608;2024-03-08T08:27:50;69.42;51.62;87.41;;
80580;Laerm;69939;52.402;6.608;2024-03-08T08:30:24;67.33;49.75;84.80;;
80580;Laerm;69939;52.402;6.608;2024-03-08T08:32:53;68.19;47.02;84.73;;
80580;Laerm;69939;52.402;6.608;2024-03-08T08:35:26;67.34;45.75;80.75;;
80580;Laerm;69939;52.402;6.608;2024-03-08T08:37:56;67.30;45.84;87.66;;
80580;Laerm;69939;52.402;6.608;2024-03-08T08:40:26;66.88;48.32;77.99;;
80580;Laerm;69939;52.402;6.608;2024-03-08T08:42:58;70.01;48.05;85.07;;
80580;Laerm;69939;52.402;6.608;2024-03-08T08:45:33;68.09;47.78;77.09;;
80580;Laerm;69939;52.402;6.608;2024-03-08T08:48:05;69.32;47.53;83.90;;
80580;Laerm;69939;52.402;6.608;2024-03-08T08:50:40;64.75;47.63;75.68;;
80580;Laerm;69939;52.402;6.608;2024-03-08T08:53:10;67.93;47.59;85.94;;
80580;Laerm;69939;52.402;6.608;2024-03-08T08:55:40;69.73;50.57;87.02;;
80580;Laerm;69939;52.402;6.608;2024-03-08T08:58:11;66.82;49.23;82.29;;
80580;Laerm;69939;52.402;6.608;2024-03-08T09:00:43;68.49;51.05;86.89;;
80580;Laerm;69939;52.402;6.608;2024-03-08T09:03:13;69.10;52.53;85.56;;
80580;Laerm;69939;52.402;6.608;2024-03-08T09:05:43;66.88;50.04;78.90;;
80580;Laerm;69939;52.402;6.608;2024-03-08T09:08:13;67.11;53.96;76.77;;
80580;Laerm;69939;52.402;6.608;2024-03-08T09:10:42;67.93;52.07;81.06;;
80580;Laerm;69939;52.402;6.608;2024-03-08T09:13:13;66.20;49.59;76.75;;
80580;Laerm;69939;52.402;6.608;2024-03-08T09:15:45;67.10;48.68;75.99;;
80580;Laerm;69939;52.402;6.608;2024-03-08T09:18:15;67.08;49.58;76.18;;
80580;Laerm;69939;52.402;6.608;2024-03-08T09:20:47;69.90;49.13;88.03;;
80580;Laerm;69939;52.402;6.608;2024-03-08T09:23:19;64.33;47.95;73.96;;
80580;Laerm;69939;52.402;6.608;2024-03-08T09:25:48;69.38;52.03;84.02;;
80580;Laerm;69939;52.402;6.608;2024-03-08T09:28:18;68.22;50.19;85.54;;
80580;Laerm;69939;52.402;6.608;2024-03-08T09:30:50;67.29;50.33;83.48;;
80580;Laerm;69939;52.402;6.608;2024-03-08T09:33:19;67.71;46.75;88.78;;
80580;Laerm;69939;52.402;6.608;2024-03-08T09:35:49;65.87;47.87;77.80;;
80580;Laerm;69939;52.402;6.608;2024-03-08T09:38:19;65.82;47.72;83.86;;
80580;Laerm;69939;52.402;6.608;2024-03-08T09:40:48;67.49;49.13;83.78;;
80580;Laerm;69939;52.402;6.608;2024-03-08T09:43:19;69.83;44.02;91.42;;
80580;Laerm;69939;52.402;6.608;2024-03-08T09:45:52;66.50;51.19;82.22;;
80580;Laerm;69939;52.402;6.608;2024-03-08T09:48:22;69.14;45.89;88.83;;
80580;Laerm;69939;52.402;6.608;2024-03-08T09:50:58;64.83;45.65;74.40;;
80580;Laerm;69939;52.402;6.608;2024-03-08T09:53:28;66.93;49.45;80.26;;
80580;Laerm;69939;52.402;6.608;2024-03-08T09:55:58;66.24;48.49;75.63;;
80580;Laerm;69939;52.402;6.608;2024-03-08T09:58:29;67.93;51.13;83.67;;
80580;Laerm;69939;52.402;6.608;2024-03-08T10:01:20;65.29;48.83;80.51;;
80580;Laerm;69939;52.402;6.608;2024-03-08T10:03:52;67.28;50.92;82.88;;
80580;Laerm;69939;52.402;6.608;2024-03-08T10:06:30;68.90;51.08;79.84;;
80580;Laerm;69939;52.402;6.608;2024-03-08T10:09:02;66.96;48.05;81.89;;
80580;Laerm;69939;52.402;6.608;2024-03-08T10:11:31;66.79;46.87;80.30;;
80580;Laerm;69939;52.402;6.608;2024-03-08T10:14:01;67.99;49.71;84.12;;
80580;Laerm;69939;52.402;6.608;2024-03-08T10:16:32;65.66;47.68;82.82;;
80580;Laerm;69939;52.402;6.608;2024-03-08T10:19:01;68.58;47.37;85.90;;
80580;Laerm;69939;52.402;6.608;2024-03-08T10:21:34;64.87;47.05;73.43;;
80580;Laerm;69939;52.402;6.608;2024-03-08T10:24:03;64.92;46.02;76.24;;
80580;Laerm;69939;52.402;6.608;2024-03-08T10:26:37;66.74;49.16;79.15;;
80580;Laerm;69939;52.402;6.608;2024-03-08T10:29:09;67.60;50.03;80.65;;
80580;Laerm;69939;52.402;6.608;2024-03-08T10:31:43;66.24;48.50;80.10;;
80580;Laerm;69939;52.402;6.608;2024-03-08T10:34:13;65.74;47.40;77.71;;
80580;Laerm;69939;52.402;6.608;2024-03-08T10:36:48;66.10;47.00;74.94;;
80580;Laerm;69939;52.402;6.608;2024-03-08T10:39:23;67.00;48.68;78.85;;
80580;Laerm;69939;52.402;6.608;2024-03-08T10:42:04;67.98;46.17;82.08;;
80580;Laerm;69939;52.402;6.608;2024-03-08T10:44:49;68.70;49.78;82.32;;
80580;Laerm;69939;52.402;6.608;2024-03-08T10:47:26;72.71;43.46;90.19;;
80580;Laerm;69939;52.402;6.608;2024-03-08T10:50:10;66.17;49.42;75.29;;
80580;Laerm;69939;52.402;6.608;2024-03-08T10:52:50;67.23;49.06;76.90;;
80580;Laerm;69939;52.402;6.608;2024-03-08T10:55:20;66.40;48.24;82.94;;
80580;Laerm;69939;52.402;6.608;2024-03-08T10:57:52;68.36;49.19;79.36;;
80580;Laerm;69939;52.402;6.608;2024-03-08T11:00:22;67.97;49.50;84.89;;
80580;Laerm;69939;52.402;6.608;2024-03-08T11:02:53;64.26;47.19;72.98;;
80580;Laerm;69939;52.402;6.608;2024-03-08T11:05:38;66.87;47.87;84.53;;
80580;Laerm;69939;52.402;6.608;2024-03-08T11:08:17;67.49;48.21;77.84;;
80580;Laerm;69939;52.402;6.608;2024-03-08T11:10:51;68.77;50.38;91.11;;
80580;Laerm;69939;52.402;6.608;2024-03-08T11:13:35;67.08;47.37;75.75;;
80580;Laerm;69939;52.402;6.608;2024-03-08T11:16:09;65.82;46.99;79.99;;
80580;Laerm;69939;52.402;6.608;2024-03-08T11:18:40;66.04;47.45;76.88;;
80580;Laerm;69939;52.402;6.608;2024-03-08T11:21:13;66.96;47.27;75.24;;
80580;Laerm;69939;52.402;6.608;2024-03-08T11:23:42;68.40;49.43;81.50;;
80580;Laerm;69939;52.402;6.608;2024-03-08T11:26:24;67.95;49.56;82.12;;
80580;Laerm;69939;52.402;6.608;2024-03-08T11:28:54;66.30;48.65;83.53;;
80580;Laerm;69939;52.402;6.608;2024-03-08T11:31:25;67.58;49.18;80.31;;
80580;Laerm;69939;52.402;6.608;2024-03-08T11:33:55;65.01;48.43;74.70;;
80580;Laerm;69939;52.402;6.608;2024-03-08T11:36:25;70.32;48.95;86.40;;
80580;Laerm;69939;52.402;6.608;2024-03-08T11:38:58;67.62;49.56;78.52;;
80580;Laerm;69939;52.402;6.608;2024-03-08T11:41:38;66.00;50.49;75.23;;
80580;Laerm;69939;52.402;6.608;2024-03-08T11:44:08;67.84;49.53;76.14;;
80580;Laerm;69939;52.402;6.608;2024-03-08T11:46:41;67.08;46.77;76.43;;
80580;Laerm;69939;52.402;6.608;2024-03-08T11:49:13;66.43;46.88;79.26;;
80580;Laerm;69939;52.402;6.608;2024-03-08T11:51:44;67.01;48.15;83.66;;
80580;Laerm;69939;52.402;6.608;2024-03-08T11:54:17;66.63;49.11;86.42;;
80580;Laerm;69939;52.402;6.608;2024-03-08T11:56:52;67.43;48.02;84.49;;
80580;Laerm;69939;52.402;6.608;2024-03-08T11:59:21;67.77;47.64;80.48;;
80580;Laerm;69939;52.402;6.608;2024-03-08T12:02:03;67.59;46.86;78.88;;
80580;Laerm;69939;52.402;6.608;2024-03-08T12:04:36;66.35;46.34;84.99;;
80580;Laerm;69939;52.402;6.608;2024-03-08T12:07:10;69.94;47.82;88.67;;
80580;Laerm;69939;52.402;6.608;2024-03-08T12:09:41;69.45;55.80;84.22;;
80580;Laerm;69939;52.402;6.608;2024-03-08T12:12:16;67.02;48.47;76.88;;
80580;Laerm;69939;52.402;6.608;2024-03-08T12:14:46;68.96;49.50;84.10;;
80580;Laerm;69939;52.402;6.608;2024-03-08T12:17:18;70.80;50.52;91.21;;
80580;Laerm;69939;52.402;6.608;2024-03-08T12:19:47;68.23;51.60;84.87;;
80580;Laerm;69939;52.402;6.608;2024-03-08T12:22:19;66.06;49.11;78.79;;
80580;Laerm;69939;52.402;6.608;2024-03-08T12:25:04;67.18;47.89;76.72;;
80580;Laerm;69939;52.402;6.608;2024-03-08T12:27:39;66.87;49.97;76.51;;
80580;Laerm;69939;52.402;6.608;2024-03-08T12:30:23;70.16;47.71;86.56;;
80580;Laerm;69939;52.402;6.608;2024-03-08T12:32:57;67.60;48.14;82.32;;
80580;Laerm;69939;52.402;6.608;2024-03-08T12:35:30;67.78;52.43;82.99;;
80580;Laerm;69939;52.402;6.608;2024-03-08T12:38:00;67.07;49.46;75.81;;
80580;Laerm;69939;52.402;6.608;2024-03-08T12:40:33;68.68;48.10;86.04;;
80580;Laerm;69939;52.402;6.608;2024-03-08T12:43:09;67.23;49.06;83.64;;
80580;Laerm;69939;52.402;6.608;2024-03-08T12:45:41;67.12;47.92;79.39;;
80580;Laerm;69939;52.402;6.608;2024-03-08T12:48:14;70.37;50.84;88.95;;
80580;Laerm;69939;52.402;6.608;2024-03-08T12:50:45;68.47;49.63;85.52;;
80580;Laerm;69939;52.402;6.608;2024-03-08T12:53:17;68.88;53.13;87.10;;
80580;Laerm;69939;52.402;6.608;2024-03-08T12:55:50;70.54;52.51;89.42;;
80580;Laerm;69939;52.402;6.608;2024-03-08T12:58:25;66.97;49.49;80.72;;
80580;Laerm;69939;52.402;6.608;2024-03-08T13:01:03;68.60;47.35;84.25;;
80580;Laerm;69939;52.402;6.608;2024-03-08T13:03:35;69.34;48.29;86.84;;
80580;Laerm;69939;52.402;6.608;2024-03-08T13:06:06;67.77;49.17;88.09;;
80580;Laerm;69939;52.402;6.608;2024-03-08T13:08:36;68.12;53.37;82.74;;
80580;Laerm;69939;52.402;6.608;2024-03-08T13:11:07;66.50;48.08;75.57;;
80580;Laerm;69939;52.402;6.608;2024-03-08T13:13:38;67.92;50.22;84.73;;
80580;Laerm;69939;52.402;6.608;2024-03-08T13:16:11;70.05;50.34;87.04;;
80580;Laerm;69939;52.402;6.608;2024-03-08T13:18:43;69.23;49.43;85.67;;
80580;Laerm;69939;52.402;6.608;2024-03-08T13:21:16;70.28;51.41;85.47;;
80580;Laerm;69939;52.402;6.608;2024-03-08T13:23:50;67.46;47.58;79.59;;
80580;Laerm;69939;52.402;6.608;2024-03-08T13:26:25;65.70;45.81;83.83;;
80580;Laerm;69939;52.402;6.608;2024-03-08T13:28:58;67.43;46.96;85.78;;
80580;Laerm;69939;52.402;6.608;2024-03-08T13:31:28;67.05;46.46;77.62;;
80580;Laerm;69939;52.402;6.608;2024-03-08T13:33:58;70.20;48.46;85.47;;
80580;Laerm;69939;52.402;6.608;2024-03-08T13:36:27;67.78;46.80;80.50;;
80580;Laerm;69939;52.402;6.608;2024-03-08T13:39:05;70.03;50.80;87.04;;
80580;Laerm;69939;52.402;6.608;2024-03-08T13:41:44;68.78;48.84;85.44;;
80580;Laerm;69939;52.402;6.608;2024-03-08T13:44:14;71.45;49.82;92.58;;
80580;Laerm;69939;52.402;6.608;2024-03-08T13:46:43;68.61;49.37;85.26;;
80580;Laerm;69939;52.402;6.608;2024-03-08T13:49:17;65.57;47.46;74.53;;
80580;Laerm;69939;52.402;6.608;2024-03-08T13:51:46;70.17;50.33;88.11;;
80580;Laerm;69939;52.402;6.608;2024-03-08T13:54:15;68.06;53.38;75.51;;
80580;Laerm;69939;52.402;6.608;2024-03-08T13:56:51;69.16;47.45;87.26;;
80580;Laerm;69939;52.402;6.608;2024-03-08T13:59:21;65.86;48.11;77.51;;
80580;Laerm;69939;52.402;6.608;2024-03-08T14:01:56;67.07;47.99;81.53;;
80580;Laerm;69939;52.402;6.608;2024-03-08T14:04:27;70.02;50.86;87.48;;
80580;Laerm;69939;52.402;6.608;2024-03-08T14:06:56;67.09;49.91;85.66;;
80580;Laerm;69939;52.402;6.608;2024-03-08T14:09:29;68.74;50.17;85.55;;